createdAt,value
2023-01-07T00:03:44.245Z,4.39
2023-01-07T00:07:45.704Z,4.39
2023-01-07T00:11:43.760Z,4.39
2023-01-07T00:15:43.760Z,4.39
2023-01-07T00:19:44.154Z,4.39
2023-01-07T00:23:43.224Z,4.39
2023-01-07T00:27:42.975Z,4.39
2023-01-07T00:31:43.714Z,4.39
2023-01-07T00:35:43.075Z,4.39
2023-01-07T00:39:43.443Z,4.39
2023-01-07T00:43:43.248Z,4.39
2023-01-07T00:47:43.906Z,4.39
2023-01-07T00:51:43.403Z,4.39
2023-01-07T00:55:43.780Z,4.39
2023-01-07T00:59:43.435Z,4.39
2023-01-07T01:03:43.723Z,4.39
2023-01-07T01:07:43.357Z,4.39
2023-01-07T01:11:43.494Z,4.39
2023-01-07T01:15:42.806Z,4.39
2023-01-07T01:19:42.701Z,4.39
2023-01-07T01:23:43.138Z,4.39
2023-01-07T01:27:43.202Z,4.39
2023-01-07T01:31:43.901Z,4.39
2023-01-07T01:35:42.693Z,4.39
2023-01-07T01:39:42.764Z,4.39
2023-01-07T01:43:43.004Z,4.39
2023-01-07T01:47:43.638Z,4.39
2023-01-07T01:51:43.460Z,4.39
2023-01-07T01:55:43.329Z,4.39
2023-01-07T01:59:43.729Z,4.39
2023-01-07T02:03:44.712Z,4.39
2023-01-07T02:07:42.857Z,4.39
2023-01-07T02:11:43.127Z,4.39
2023-01-07T02:15:42.996Z,4.39
2023-01-07T02:19:43.288Z,4.39
2023-01-07T02:23:43.274Z,4.39
2023-01-07T02:27:43.797Z,4.39
2023-01-07T02:31:44.003Z,4.39
2023-01-07T02:35:42.850Z,4.39
2023-01-07T02:39:42.953Z,4.39
2023-01-07T02:43:42.983Z,4.39
2023-01-07T02:47:43.259Z,4.39
2023-01-07T02:51:43.355Z,4.39
2023-01-07T02:55:43.258Z,4.39
2023-01-07T02:59:43.153Z,4.39
2023-01-07T03:03:43.454Z,4.39
2023-01-07T03:07:43.121Z,4.39
2023-01-07T03:11:43.526Z,4.39
2023-01-07T03:15:43.669Z,4.39
2023-01-07T03:19:43.413Z,4.39
2023-01-07T03:23:43.680Z,4.39
2023-01-07T03:27:43.529Z,4.39
2023-01-07T03:31:43.150Z,4.39
2023-01-07T03:35:42.949Z,4.39
2023-01-07T03:39:43.091Z,4.39
2023-01-07T03:43:43.214Z,4.39
2023-01-07T03:47:43.792Z,4.39
2023-01-07T03:51:42.766Z,4.39
2023-01-07T03:55:42.954Z,4.39
2023-01-07T03:59:43.113Z,4.39
2023-01-07T04:03:43.318Z,4.39
2023-01-07T04:07:43.197Z,4.39
2023-01-07T04:11:43.235Z,4.39
2023-01-07T04:15:44.446Z,4.39
2023-01-07T04:19:43.405Z,4.39
2023-01-07T04:23:43.519Z,4.39
2023-01-07T04:27:43.633Z,4.39
2023-01-07T04:31:43.224Z,4.39
2023-01-07T04:35:43.020Z,4.39
2023-01-07T04:39:43.193Z,4.39
2023-01-07T04:43:43.754Z,4.39
2023-01-07T04:47:43.938Z,4.39
2023-01-07T04:51:42.792Z,4.39
2023-01-07T04:55:43.938Z,4.39
2023-01-07T04:59:42.892Z,4.39
2023-01-07T05:03:44.068Z,4.39
2023-01-07T05:07:42.527Z,4.39
2023-01-07T05:11:42.868Z,4.39
2023-01-07T05:15:42.911Z,4.39
2023-01-07T05:19:42.925Z,4.39
2023-01-07T05:23:42.857Z,4.39
2023-01-07T05:27:43.056Z,4.39
2023-01-07T05:31:43.723Z,4.39
2023-01-07T05:35:43.060Z,4.39
2023-01-07T05:39:43.205Z,4.39
2023-01-07T05:43:43.155Z,4.39
2023-01-07T05:47:43.702Z,4.39
2023-01-07T05:51:43.562Z,4.39
2023-01-07T05:55:43.720Z,4.39
2023-01-07T05:59:43.551Z,4.39
2023-01-07T06:03:43.843Z,4.39
2023-01-07T06:07:43.578Z,4.39
2023-01-07T06:11:44.915Z,4.39
2023-01-07T06:15:44.149Z,4.39
2023-01-07T06:19:43.703Z,4.39
2023-01-07T06:23:43.753Z,4.39
2023-01-07T06:27:43.487Z,4.39
2023-01-07T06:31:44.354Z,4.39
2023-01-07T06:35:42.636Z,4.39
2023-01-07T06:39:42.819Z,4.39
2023-01-07T06:43:43.309Z,4.39
2023-01-07T06:47:43.385Z,4.39
2023-01-07T06:51:43.057Z,4.39
2023-01-07T06:55:45.061Z,4.39
2023-01-07T06:59:43.040Z,4.39
2023-01-07T07:03:43.799Z,4.39
2023-01-07T07:07:43.108Z,4.39
2023-01-07T07:11:43.287Z,4.39
2023-01-07T07:15:43.297Z,4.39
2023-01-07T07:19:43.213Z,4.39
2023-01-07T07:23:46.035Z,4.39
2023-01-07T07:27:43.405Z,4.39
2023-01-07T07:32:07.276Z,4.39
2023-01-07T07:35:43.759Z,4.39
2023-01-07T07:39:42.687Z,4.39
2023-01-07T07:44:19.656Z,4.39
2023-01-07T07:47:43.666Z,4.39
2023-01-07T07:51:43.627Z,4.39
2023-01-07T07:56:05.864Z,4.39
2023-01-07T07:59:43.691Z,4.39
2023-01-07T08:03:44.281Z,4.39
2023-01-07T08:07:56.147Z,4.39
2023-01-07T08:11:43.509Z,4.39
2023-01-07T08:15:43.485Z,4.39
2023-01-07T08:19:42.911Z,4.39
2023-01-07T08:23:42.874Z,4.39
2023-01-07T08:27:43.070Z,4.39
2023-01-07T08:31:43.627Z,4.39
2023-01-07T08:35:44.042Z,4.39
2023-01-07T08:39:43.422Z,4.39
2023-01-07T08:43:43.473Z,4.39
2023-01-07T08:47:45.844Z,4.39
2023-01-07T08:51:43.420Z,4.39
2023-01-07T08:55:44.697Z,4.39
2023-01-07T08:59:42.593Z,4.39
2023-01-07T09:03:43.762Z,4.39
2023-01-07T09:07:43.273Z,4.39
2023-01-07T09:11:43.533Z,4.39
2023-01-07T09:15:42.713Z,4.39
2023-01-07T09:19:42.797Z,4.39
2023-01-07T09:23:42.961Z,4.39
2023-01-07T09:27:42.867Z,4.39
2023-01-07T09:31:43.418Z,4.39
2023-01-07T09:35:43.069Z,4.39
2023-01-07T09:39:43.250Z,4.39
2023-01-07T09:44:12.852Z,4.39
2023-01-07T09:47:43.658Z,4.39
2023-01-07T09:51:44.153Z,4.39
2023-01-07T09:56:11.243Z,4.39
2023-01-07T09:59:45.581Z,4.39
2023-01-07T10:03:44.295Z,4.39
2023-01-07T10:08:29.718Z,4.39
2023-01-07T10:11:44.149Z,4.39
2023-01-07T10:15:43.073Z,4.39
2023-01-07T10:19:42.957Z,4.39
2023-01-07T10:23:43.026Z,4.39
2023-01-07T10:27:42.815Z,4.39
2023-01-07T10:31:43.857Z,4.39
2023-01-07T10:35:43.856Z,4.39
2023-01-07T10:39:43.568Z,4.39
2023-01-07T10:43:43.542Z,4.39
2023-01-07T10:47:43.527Z,4.39
2023-01-07T10:51:43.773Z,4.39
2023-01-07T10:55:43.611Z,4.39
2023-01-07T10:59:43.585Z,4.39
2023-01-07T11:03:45.012Z,4.39
2023-01-07T11:07:43.188Z,4.39
2023-01-07T11:11:44.035Z,70096.4
2023-01-07T11:15:43.056Z,70096.4
2023-01-07T11:19:43.452Z,10014
2023-01-07T11:23:44.184Z,10014
2023-01-07T11:27:43.737Z,10014
2023-01-07T11:31:43.789Z,10014
2023-01-07T11:35:46.178Z,10014
2023-01-07T11:39:42.909Z,10014
2023-01-07T11:43:43.162Z,10014
2023-01-07T11:48:03.453Z,10014
2023-01-07T11:51:43.387Z,10014
2023-01-07T11:55:43.771Z,10014
2023-01-07T12:00:12.223Z,10014
2023-01-07T12:03:47.435Z,10014
2023-01-07T12:07:43.200Z,10014
2023-01-07T12:11:43.297Z,10014
2023-01-07T12:15:43.449Z,10014
2023-01-07T12:19:43.232Z,10014
2023-01-07T12:23:44.643Z,17995.5
2023-01-07T12:27:43.492Z,17995.5
2023-01-07T12:31:43.847Z,13.62
2023-01-07T12:35:59.832Z,6.87
2023-01-07T12:39:43.665Z,6.87
2023-01-07T12:43:43.873Z,4.63
2023-01-07T12:48:18.851Z,1305.34
2023-01-07T12:51:45.614Z,1305.34
2023-01-07T12:55:43.799Z,2.97
2023-01-07T13:00:21.550Z,2.61
2023-01-07T13:03:45.196Z,2.61
2023-01-07T13:07:43.275Z,886.11
2023-01-07T13:11:43.171Z,886.11
2023-01-07T13:15:43.543Z,886.11
2023-01-07T13:19:43.129Z,886.11
2023-01-07T13:23:43.532Z,886.11
2023-01-07T13:27:43.792Z,1.83
2023-01-07T13:31:44.400Z,668.34
2023-01-07T13:35:42.793Z,668.34
2023-01-07T13:39:43.081Z,1.62
2023-01-07T13:43:45.565Z,1.62
2023-01-07T13:47:43.901Z,1.62
2023-01-07T13:51:43.749Z,1.62
2023-01-07T13:55:43.920Z,1.62
2023-01-07T13:59:43.576Z,1.62
2023-01-07T14:03:44.346Z,1.62
2023-01-07T14:07:43.314Z,1.62
2023-01-07T14:11:43.523Z,1.62
2023-01-07T14:15:43.835Z,1.62
2023-01-07T14:19:43.647Z,1.62
2023-01-07T14:23:43.669Z,1.62
2023-01-07T14:27:42.874Z,1.62
2023-01-07T14:31:58.124Z,1.62
2023-01-07T14:35:43.386Z,1.62
2023-01-07T14:39:43.275Z,1.62
2023-01-07T14:43:43.519Z,1.62
2023-01-07T14:47:47.231Z,1.62
2023-01-07T14:51:43.826Z,1.62
2023-01-07T14:55:42.960Z,1.62
2023-01-07T14:59:42.768Z,1.62
2023-01-07T15:03:43.862Z,1.62
2023-01-07T15:07:42.788Z,1.62
2023-01-07T15:11:46.209Z,1.62
2023-01-07T15:15:43.294Z,1.62
2023-01-07T15:19:43.919Z,1.62
2023-01-07T15:23:43.683Z,1.62
2023-01-07T15:27:43.502Z,1.62
2023-01-07T15:31:43.888Z,1.62
2023-01-07T15:35:43.831Z,1.62
2023-01-07T15:39:46.818Z,1.62
2023-01-07T15:43:43.653Z,1.62
2023-01-07T15:47:44.346Z,1.62
2023-01-07T15:51:42.978Z,1.62
2023-01-07T15:55:43.284Z,1.62
2023-01-07T15:59:43.288Z,1.62
2023-01-07T16:03:44.043Z,1.62
2023-01-07T16:07:43.923Z,1.62
2023-01-07T16:11:43.592Z,1.62
2023-01-07T16:15:43.453Z,1.62
2023-01-07T16:19:43.399Z,1.62
2023-01-07T16:23:43.203Z,1.62
2023-01-07T16:27:43.212Z,1.62
2023-01-07T16:31:43.994Z,1.62
2023-01-07T16:35:43.465Z,1.62
2023-01-07T16:39:44.090Z,1.62
2023-01-07T16:43:44.565Z,1.62
2023-01-07T16:47:44.725Z,1.62
2023-01-07T16:51:42.907Z,1.62
2023-01-07T16:55:42.907Z,1.62
2023-01-07T16:59:43.459Z,1.62
2023-01-07T17:03:43.231Z,1.62
2023-01-07T17:07:44.880Z,1.62
2023-01-07T17:11:44.042Z,1.62
2023-01-07T17:15:43.899Z,1.62
2023-01-07T17:19:43.286Z,1.62
2023-01-07T17:23:43.257Z,1.62
2023-01-07T17:27:48.742Z,1.62
2023-01-07T17:31:43.751Z,1.62
2023-01-07T17:35:44.922Z,1.62
2023-01-07T17:39:43.528Z,1.62
2023-01-07T17:43:43.910Z,1.62
2023-01-07T17:47:44.673Z,1.62
2023-01-07T17:51:43.857Z,1.62
2023-01-07T17:55:43.597Z,1.62
2023-01-07T17:59:43.654Z,1.62
2023-01-07T18:03:44.560Z,1.62
2023-01-07T18:07:43.719Z,1.62
2023-01-07T18:11:43.831Z,1.62
2023-01-07T18:15:43.872Z,1.62
2023-01-07T18:19:43.824Z,1.62
2023-01-07T18:23:44.311Z,1.62
2023-01-07T18:27:44.024Z,1.62
2023-01-07T18:31:44.242Z,1.62
2023-01-07T18:35:42.713Z,1.62
2023-01-07T18:39:43.475Z,1.62
2023-01-07T18:43:43.006Z,1.62
2023-01-07T18:47:43.905Z,1.62
2023-01-07T18:51:43.200Z,1.62
2023-01-07T18:55:43.280Z,1.62
2023-01-07T18:59:43.444Z,1.62
2023-01-07T19:03:43.432Z,1.62
2023-01-07T19:07:43.365Z,1.62
2023-01-07T19:11:43.622Z,1.62
2023-01-07T19:15:44.854Z,1.62
2023-01-07T19:19:58.517Z,1.62
2023-01-07T19:23:45.385Z,1.62
2023-01-07T19:27:43.173Z,1.62
2023-01-07T19:31:43.848Z,1.62
2023-01-07T19:35:43.280Z,1.62
2023-01-07T19:39:43.298Z,1.62
2023-01-07T19:43:44.305Z,1.62
2023-01-07T19:47:43.297Z,1.62
2023-01-07T19:51:44.382Z,1.62
2023-01-07T19:55:43.718Z,1.62
2023-01-07T19:59:44.140Z,1.62
2023-01-07T20:03:44.299Z,1.62
2023-01-07T20:07:43.090Z,1.62
2023-01-07T20:11:43.689Z,1.62
2023-01-07T20:15:43.519Z,1.62
2023-01-07T20:19:43.726Z,1.62
2023-01-07T20:23:43.526Z,1.62
2023-01-07T20:27:43.867Z,1.62
2023-01-07T20:31:44.314Z,1.62
2023-01-07T20:35:44.101Z,1.62
2023-01-07T20:39:43.610Z,1.62
2023-01-07T20:43:43.880Z,1.62
2023-01-07T20:47:43.941Z,1.62
2023-01-07T20:51:43.698Z,1.62
2023-01-07T20:55:44.077Z,1.62
2023-01-07T20:59:42.983Z,1.62
2023-01-07T21:03:44.766Z,1.62
2023-01-07T21:07:43.299Z,1.62
2023-01-07T21:11:43.308Z,1.62
2023-01-07T21:15:43.493Z,1.62
2023-01-07T21:19:43.624Z,1.62
2023-01-07T21:23:44.693Z,1.62
2023-01-07T21:27:43.369Z,1.62
2023-01-07T21:31:47.646Z,1.62
2023-01-07T21:35:43.050Z,1.62
2023-01-07T21:39:43.535Z,1.62
2023-01-07T21:43:43.514Z,1.62
2023-01-07T21:47:44.057Z,1.62
2023-01-07T21:51:43.747Z,1.62
2023-01-07T21:55:43.725Z,1.62
2023-01-07T21:59:44.080Z,1.62
2023-01-07T22:03:43.246Z,1.62
2023-01-07T22:07:43.362Z,1.62
2023-01-07T22:11:43.306Z,1.62
2023-01-07T22:15:43.344Z,1.62
2023-01-07T22:19:43.404Z,1.62
2023-01-07T22:23:43.424Z,1.62
2023-01-07T22:27:43.469Z,1.62
2023-01-07T22:31:43.910Z,1.62
2023-01-07T22:35:43.903Z,1.62
2023-01-07T22:39:42.757Z,1.62
2023-01-07T22:43:43.271Z,1.62
2023-01-07T22:47:43.331Z,1.62
2023-01-07T22:51:43.484Z,1.62
2023-01-07T22:55:43.264Z,1.62
2023-01-07T22:59:45.700Z,1.62
2023-01-07T23:03:43.887Z,1.62
2023-01-07T23:07:43.455Z,1.62
2023-01-07T23:11:43.815Z,1.62
2023-01-07T23:15:42.665Z,1.62
2023-01-07T23:19:43.683Z,1.62
2023-01-07T23:23:42.843Z,1.62
2023-01-07T23:27:43.122Z,1.62
2023-01-07T23:31:43.687Z,1.62
2023-01-07T23:35:42.620Z,1.62
2023-01-07T23:39:42.681Z,1.62
2023-01-07T23:43:43.054Z,1.62
2023-01-07T23:47:43.407Z,1.62
2023-01-07T23:51:43.413Z,1.62
2023-01-07T23:55:43.875Z,1.62
2023-01-07T23:59:43.607Z,1.62
